Time;durP1;ratioP1;P1;durP2;ratioP2;P2;SDS_P1;SDS_P2;PMS_P1;PMS_P2;Temp;Humidity;BMP_temperature;BMP_pressure;BME280_temperature;BME280_humidity;BME280_pressure;Samples;Min_cycle;Max_cycle;Signal;HPM_P1;HPM_P2
2024/02/09 00:00:12;;;;;;;32.83;14.87;;;1.20;99.90;;;;;;5011935;28;20204;-82
2024/02/09 00:03:00;;;;;;;42.60;17.17;;;1.20;99.90;;;;;;5013458;28;20222;-82
2024/02/09 00:05:50;;;;;;;34.67;16.07;;;1.30;99.90;;;;;;4997183;28;20207;-82
2024/02/09 00:08:40;;;;;;;36.90;15.70;;;1.30;99.90;;;;;;4997725;28;20195;-83
2024/02/09 00:11:29;;;;;;;35.30;14.33;;;1.30;99.90;;;;;;4998267;28;20218;-81
2024/02/09 00:14:16;;;;;;;33.83;14.33;;;1.40;99.90;;;;;;4997299;28;20196;-82
2024/02/09 00:17:04;;;;;;;34.43;15.27;;;1.40;99.90;;;;;;4998231;28;20202;-81
2024/02/09 00:19:51;;;;;;;33.57;15.97;;;1.40;99.90;;;;;;5011162;28;20199;-82
2024/02/09 00:22:39;;;;;;;38.53;16.90;;;1.40;99.90;;;;;;5011034;28;20215;-81
2024/02/09 00:25:27;;;;;;;33.23;15.90;;;1.50;99.90;;;;;;5011744;28;20198;-81
2024/02/09 00:28:15;;;;;;;38.73;16.63;;;1.40;99.90;;;;;;4998079;28;20217;-81
2024/02/09 00:31:04;;;;;;;41.67;17.60;;;1.30;99.90;;;;;;4997573;28;20246;-81
2024/02/09 00:33:52;;;;;;;42.40;18.67;;;1.10;99.90;;;;;;5011871;28;20607;-81
2024/02/09 00:36:40;;;;;;;38.70;17.43;;;1.10;99.90;;;;;;5010812;28;20279;-81
2024/02/09 00:39:33;;;;;;;41.07;17.83;;;1.10;99.90;;;;;;4997638;28;20200;-81
2024/02/09 00:42:21;;;;;;;41.43;18.20;;;1.10;99.90;;;;;;5010625;28;20657;-81
2024/02/09 00:45:09;;;;;;;41.17;18.60;;;1.20;99.90;;;;;;5010165;28;20672;-81
2024/02/09 00:47:57;;;;;;;42.30;18.87;;;1.10;99.90;;;;;;4997273;28;20200;-82
2024/02/09 00:50:45;;;;;;;43.50;19.43;;;1.10;99.90;;;;;;5011752;28;20264;-82
2024/02/09 00:53:33;;;;;;;45.80;18.50;;;1.10;99.90;;;;;;4998162;28;20199;-82
2024/02/09 00:56:20;;;;;;;40.60;19.47;;;1.00;99.90;;;;;;5010250;28;20202;-82
2024/02/09 00:59:08;;;;;;;43.10;19.97;;;1.00;99.90;;;;;;4997810;28;20276;-81
2024/02/09 01:01:57;;;;;;;39.90;20.27;;;1.10;99.90;;;;;;4997751;28;20359;-81
2024/02/09 01:04:52;;;;;;;43.13;20.30;;;1.00;99.90;;;;;;5011225;28;20310;-81
2024/02/09 01:07:41;;;;;;;51.03;21.93;;;1.00;99.90;;;;;;5011290;28;20235;-82
2024/02/09 01:10:31;;;;;;;46.63;20.80;;;0.90;99.90;;;;;;5012258;28;20581;-83
2024/02/09 02:46:34;;;;;;;37.47;16.57;;;1.20;99.90;;;;;;5013912;28;20204;-82
2024/02/09 03:04:52;;;;;;;31.63;15.97;;;1.30;99.90;;;;;;5012838;28;20203;-82
2024/02/09 03:07:39;;;;;;;31.60;15.60;;;1.20;99.90;;;;;;4998427;28;20230;-82
2024/02/09 03:10:46;;;;;;;32.20;15.27;;;1.30;99.90;;;;;;5012058;28;20214;-82
2024/02/09 03:13:34;;;;;;;34.37;15.63;;;1.30;99.90;;;;;;5012097;28;20278;-81
2024/02/09 03:16:21;;;;;;;31.90;15.13;;;1.20;99.90;;;;;;5013092;28;20257;-82
2024/02/09 03:19:09;;;;;;;30.40;15.53;;;1.30;99.90;;;;;;4998387;28;20196;-82
2024/02/09 03:21:56;;;;;;;31.60;16.10;;;1.30;99.90;;;;;;4998735;28;20295;-82
2024/02/09 03:24:44;;;;;;;32.60;14.77;;;1.30;99.90;;;;;;5011882;28;20573;-82
2024/02/09 03:27:33;;;;;;;31.33;15.57;;;1.20;99.90;;;;;;4998506;28;20216;-82
2024/02/09 03:30:22;;;;;;;33.07;15.80;;;1.30;99.90;;;;;;4998941;28;20205;-82
2024/02/09 03:33:11;;;;;;;32.73;15.13;;;1.30;99.90;;;;;;4998501;28;20196;-82
2024/02/09 03:35:59;;;;;;;31.17;15.60;;;1.40;99.90;;;;;;5014053;28;20207;-81
2024/02/09 03:38:49;;;;;;;30.43;15.47;;;1.20;99.90;;;;;;5012154;28;20575;-82
2024/02/09 03:41:37;;;;;;;35.67;15.97;;;1.40;99.90;;;;;;4998061;28;22283;-82
2024/02/09 03:44:25;;;;;;;35.83;17.03;;;1.40;99.90;;;;;;4998811;28;20197;-82
2024/02/09 03:47:12;;;;;;;32.57;16.43;;;1.40;99.90;;;;;;5012803;28;20228;-81
2024/02/09 03:50:00;;;;;;;33.63;15.70;;;1.30;99.90;;;;;;4998286;28;20195;-82
2024/02/09 03:52:47;;;;;;;37.20;17.13;;;1.30;99.90;;;;;;5012122;28;20195;-82
2024/02/09 03:55:34;;;;;;;38.03;17.33;;;1.40;99.90;;;;;;5011415;28;20209;-82
2024/02/09 03:58:22;;;;;;;39.40;16.57;;;1.50;99.90;;;;;;5013685;28;20696;-82
2024/02/09 04:01:12;;;;;;;39.00;16.43;;;1.20;99.90;;;;;;5011534;28;20327;-82
2024/02/09 04:04:02;;;;;;;40.17;17.30;;;1.20;99.90;;;;;;5012185;28;20681;-82
2024/02/09 04:06:50;;;;;;;38.47;17.90;;;1.20;99.90;;;;;;5011483;28;20237;-82
2024/02/09 04:09:38;;;;;;;38.30;18.07;;;1.30;99.90;;;;;;4999840;28;20203;-82
2024/02/09 04:12:46;;;;;;;36.43;16.53;;;1.20;99.90;;;;;;5000637;28;20217;-82
2024/02/09 04:15:33;;;;;;;36.30;17.23;;;1.20;99.90;;;;;;5012250;28;20245;-82
2024/02/09 04:18:21;;;;;;;39.20;16.80;;;1.20;99.90;;;;;;4996452;28;20201;-82
2024/02/09 04:21:09;;;;;;;40.47;17.53;;;1.20;99.90;;;;;;4997771;28;20204;-81
2024/02/09 04:23:57;;;;;;;33.30;17.03;;;1.20;99.90;;;;;;5013726;28;20199;-82
2024/02/09 04:26:44;;;;;;;35.27;17.63;;;1.20;99.90;;;;;;5012689;28;20224;-81
2024/02/09 04:29:36;;;;;;;35.30;17.17;;;1.50;99.90;;;;;;5012864;28;20205;-82
2024/02/09 04:32:24;;;;;;;37.30;17.17;;;1.20;99.90;;;;;;5012576;28;20665;-81
2024/02/09 04:35:13;;;;;;;40.23;17.63;;;1.20;99.90;;;;;;5010811;28;20197;-82
2024/02/09 04:38:06;;;;;;;37.83;16.97;;;1.20;99.90;;;;;;4997718;28;20225;-81
2024/02/09 04:40:55;;;;;;;39.43;17.70;;;1.10;99.90;;;;;;5011291;28;20545;-82
2024/02/09 04:43:43;;;;;;;38.83;17.43;;;1.20;99.90;;;;;;4997370;28;20715;-81
2024/02/09 04:46:32;;;;;;;37.17;17.43;;;1.30;99.90;;;;;;4998119;28;20288;-82
2024/02/09 04:49:21;;;;;;;34.83;16.43;;;1.20;99.90;;;;;;5011449;28;20665;-82
2024/02/09 04:52:11;;;;;;;37.77;16.17;;;1.20;99.90;;;;;;4996335;28;20203;-81
2024/02/09 04:54:59;;;;;;;35.80;17.07;;;1.10;99.90;;;;;;5011037;28;20576;-82
2024/02/09 04:57:47;;;;;;;37.70;17.33;;;1.20;99.90;;;;;;4996649;28;20219;-82
2024/02/09 05:00:35;;;;;;;37.33;17.40;;;1.10;99.90;;;;;;5011030;28;20192;-82
2024/02/09 05:03:23;;;;;;;32.60;16.20;;;1.00;99.90;;;;;;5011003;28;20253;-83
2024/02/09 05:06:11;;;;;;;36.37;17.00;;;1.00;99.90;;;;;;5013311;28;20244;-81
2024/02/09 05:08:59;;;;;;;38.97;18.13;;;1.30;99.90;;;;;;4997179;28;20225;-82
2024/02/09 05:11:47;;;;;;;43.30;18.57;;;1.00;99.90;;;;;;5011769;28;20291;-82
2024/02/09 05:14:34;;;;;;;37.80;17.57;;;0.90;99.90;;;;;;4997662;28;20197;-82
2024/02/09 05:17:22;;;;;;;39.23;18.60;;;1.00;99.90;;;;;;5012323;28;20203;-82
2024/02/09 05:20:13;;;;;;;44.17;19.07;;;0.90;99.90;;;;;;5014341;28;20202;-82
2024/02/09 05:23:01;;;;;;;41.77;19.00;;;1.00;99.90;;;;;;5000812;28;20658;-81
2024/02/09 05:25:48;;;;;;;38.80;18.20;;;1.00;99.90;;;;;;5000429;28;20222;-81
2024/02/09 05:28:40;;;;;;;44.77;18.33;;;1.10;99.90;;;;;;5015087;28;20216;-82
2024/02/09 05:31:28;;;;;;;41.03;18.00;;;1.10;99.90;;;;;;5000388;28;20208;-82
2024/02/09 05:34:16;;;;;;;38.77;18.57;;;1.20;99.90;;;;;;5014400;28;20199;-82
2024/02/09 05:37:03;;;;;;;43.37;18.50;;;1.10;99.90;;;;;;5000618;28;20809;-81
2024/02/09 05:39:51;;;;;;;40.27;18.10;;;1.10;99.90;;;;;;5001118;28;20238;-82
2024/02/09 05:42:40;;;;;;;42.53;18.73;;;1.10;99.90;;;;;;5001077;28;20226;-81
2024/02/09 05:45:28;;;;;;;42.67;18.73;;;1.10;99.90;;;;;;5014232;28;20271;-82
2024/02/09 05:48:16;;;;;;;42.67;19.13;;;1.00;99.90;;;;;;5014380;28;20538;-82
2024/02/09 05:51:10;;;;;;;40.90;17.73;;;1.00;99.90;;;;;;4999944;28;20323;-82
2024/02/09 05:53:58;;;;;;;40.80;17.80;;;1.00;99.90;;;;;;5013564;28;20652;-82
2024/02/09 05:56:46;;;;;;;44.43;19.53;;;0.90;99.90;;;;;;4999444;28;20222;-82
2024/02/09 05:59:34;;;;;;;44.00;19.57;;;0.90;99.90;;;;;;4999669;28;20696;-83
2024/02/09 06:02:21;;;;;;;42.60;18.50;;;1.00;99.90;;;;;;5014313;28;20285;-82
2024/02/09 06:05:11;;;;;;;42.57;17.77;;;0.90;99.90;;;;;;5000040;28;20275;-81
2024/02/09 06:08:01;;;;;;;40.00;18.27;;;0.80;99.90;;;;;;4993696;28;20623;-82
2024/02/09 06:10:49;;;;;;;43.57;18.40;;;0.80;99.90;;;;;;4996237;28;20588;-81
2024/02/09 06:13:36;;;;;;;38.37;17.97;;;0.90;99.90;;;;;;4993218;28;20203;-81
2024/02/09 06:16:23;;;;;;;38.47;17.10;;;0.90;99.90;;;;;;4993601;28;20211;-81
2024/02/09 06:19:11;;;;;;;40.60;17.53;;;0.90;99.90;;;;;;4995333;28;20584;-82
2024/02/09 06:21:59;;;;;;;36.70;16.93;;;0.80;99.90;;;;;;4993455;28;20653;-82
2024/02/09 06:24:46;;;;;;;42.60;16.83;;;0.80;99.90;;;;;;4994153;28;20279;-81
2024/02/09 06:27:33;;;;;;;37.20;17.00;;;0.80;99.90;;;;;;4994995;28;20582;-80
2024/02/09 06:30:22;;;;;;;37.10;16.60;;;0.80;99.90;;;;;;4992826;28;20674;-82
2024/02/09 06:33:09;;;;;;;37.00;17.07;;;0.90;99.90;;;;;;4994954;28;20200;-81
2024/02/09 06:35:58;;;;;;;40.27;17.43;;;0.90;99.90;;;;;;4994215;28;20572;-80
2024/02/09 06:38:46;;;;;;;34.37;16.33;;;0.80;99.90;;;;;;4993892;28;20203;-81
2024/02/09 06:41:34;;;;;;;37.73;16.67;;;0.80;99.90;;;;;;4994917;28;20563;-82
2024/02/09 06:44:22;;;;;;;36.27;16.23;;;1.10;99.90;;;;;;4994687;28;20597;-81
2024/02/09 06:47:12;;;;;;;34.67;15.70;;;1.00;99.90;;;;;;4994533;28;20206;-80
2024/02/09 06:50:00;;;;;;;33.57;15.63;;;1.00;99.90;;;;;;4994011;28;20665;-81
2024/02/09 06:52:50;;;;;;;35.90;16.43;;;1.00;99.90;;;;;;4996833;28;20639;-81
2024/02/09 06:55:37;;;;;;;36.67;15.63;;;1.10;99.90;;;;;;4981257;28;20191;-81
2024/02/09 06:58:25;;;;;;;36.47;15.37;;;1.00;99.90;;;;;;4991846;28;20334;-82
2024/02/09 07:01:13;;;;;;;30.17;14.37;;;1.10;99.90;;;;;;4993961;28;20204;-82
2024/02/09 07:04:01;;;;;;;33.93;14.83;;;1.10;99.90;;;;;;4993752;28;20254;-82
2024/02/09 07:06:48;;;;;;;32.47;14.37;;;1.10;99.90;;;;;;5004076;28;20429;-82
2024/02/09 07:09:36;;;;;;;31.00;13.93;;;1.10;99.90;;;;;;5012275;28;20199;-82
2024/02/09 07:12:23;;;;;;;31.87;14.00;;;1.20;99.90;;;;;;5012757;28;20683;-82
2024/02/09 07:15:12;;;;;;;28.87;13.17;;;1.20;99.90;;;;;;4998520;28;20574;-81
2024/02/09 07:18:00;;;;;;;28.97;13.30;;;1.20;99.90;;;;;;4997944;28;20207;-82
2024/02/09 07:20:47;;;;;;;27.33;12.47;;;1.20;99.90;;;;;;4998051;28;20448;-81
2024/02/09 07:23:36;;;;;;;28.30;12.67;;;1.30;99.90;;;;;;4999047;28;20223;-83
2024/02/09 07:26:25;;;;;;;26.23;12.00;;;1.40;99.90;;;;;;5011985;28;20199;-84
2024/02/09 07:29:17;;;;;;;25.13;11.43;;;1.40;99.90;;;;;;4998529;28;20567;-83
2024/02/09 07:32:10;;;;;;;23.03;11.13;;;1.40;99.90;;;;;;4999457;28;20285;-84
2024/02/09 07:34:58;;;;;;;23.87;11.30;;;1.40;99.90;;;;;;4998011;28;20287;-84
2024/02/09 07:37:45;;;;;;;24.73;10.80;;;1.40;99.90;;;;;;4997870;28;20200;-84
2024/02/09 07:40:34;;;;;;;24.77;11.80;;;1.30;99.90;;;;;;4998497;28;20192;-83
2024/02/09 07:43:23;;;;;;;23.40;10.93;;;1.50;99.90;;;;;;5012242;28;20230;-84
2024/02/09 07:46:12;;;;;;;22.90;10.67;;;1.40;99.90;;;;;;4998129;28;20200;-83
2024/02/09 07:49:00;;;;;;;22.07;10.37;;;1.50;99.90;;;;;;4998118;28;20192;-83
2024/02/09 07:51:49;;;;;;;20.77;10.07;;;1.60;99.90;;;;;;5012507;28;20584;-83
2024/02/09 07:54:39;;;;;;;20.37;10.03;;;1.70;99.90;;;;;;5011638;28;20215;-83
2024/02/09 07:57:26;;;;;;;18.73;9.10;;;1.60;99.90;;;;;;5012909;28;20300;-83
2024/02/09 08:00:18;;;;;;;18.60;9.47;;;1.70;99.90;;;;;;5012064;28;20689;-83
2024/02/09 08:03:06;;;;;;;17.63;8.97;;;1.60;99.90;;;;;;5010958;28;20272;-83
2024/02/09 08:05:54;;;;;;;21.23;9.23;;;1.70;99.90;;;;;;4998567;28;20279;-81
2024/02/09 08:08:41;;;;;;;16.47;8.50;;;1.80;99.90;;;;;;5011468;28;20214;-83
2024/02/09 08:11:43;;;;;;;16.53;7.83;;;1.80;99.90;;;;;;5012886;28;20228;-84
2024/02/09 08:14:37;;;;;;;19.15;9.73;;;1.80;99.90;;;;;;5011970;28;20420;-86
2024/02/09 08:17:25;;;;;;;19.95;10.32;;;1.80;99.90;;;;;;4997670;28;20456;-83
2024/02/09 08:20:14;;;;;;;16.50;8.73;;;2.10;99.90;;;;;;4998554;28;20211;-81
2024/02/09 08:23:02;;;;;;;15.10;7.80;;;2.20;99.90;;;;;;4998534;28;20676;-86
2024/02/09 08:25:49;;;;;;;19.67;9.27;;;2.50;99.90;;;;;;4995501;28;20508;-81
2024/02/09 08:28:43;;;;;;;14.13;6.73;;;2.30;99.90;;;;;;5011359;28;20571;-80
2024/02/09 08:31:31;;;;;;;26.25;10.13;;;2.30;99.90;;;;;;4996629;28;20785;-77
2024/02/09 08:34:19;;;;;;;16.10;7.23;;;2.30;99.90;;;;;;5011385;28;20566;-78
2024/02/09 08:37:07;;;;;;;31.17;7.33;;;2.30;99.90;;;;;;4998678;28;20215;-80
2024/02/09 08:39:56;;;;;;;23.07;7.00;;;2.40;99.90;;;;;;4998580;28;20208;-77
2024/02/09 08:42:43;;;;;;;13.73;5.50;;;2.40;99.90;;;;;;5012972;28;20220;-77
2024/02/09 08:45:35;;;;;;;12.93;5.93;;;2.40;99.90;;;;;;5011334;28;20287;-76
2024/02/09 08:48:23;;;;;;;11.77;5.83;;;2.40;99.90;;;;;;4997439;28;20204;-76
2024/02/09 08:51:10;;;;;;;10.60;5.40;;;2.40;99.90;;;;;;5011814;28;20194;-75
2024/02/09 08:53:59;;;;;;;9.40;5.47;;;2.50;99.90;;;;;;5014230;28;20206;-76
2024/02/09 08:56:46;;;;;;;11.10;5.47;;;2.30;99.90;;;;;;5002055;28;20223;-77
2024/02/09 08:59:35;;;;;;;12.80;5.77;;;2.40;99.90;;;;;;5015180;28;20203;-78
2024/02/09 09:02:22;;;;;;;14.00;6.20;;;2.50;99.90;;;;;;5016248;28;20204;-82
2024/02/09 09:05:11;;;;;;;11.87;5.70;;;2.60;99.90;;;;;;5016336;28;20196;-80
2024/02/09 09:08:00;;;;;;;10.20;5.50;;;2.60;99.90;;;;;;5001099;28;20237;-79
2024/02/09 09:10:47;;;;;;;15.20;5.70;;;2.50;99.90;;;;;;5014920;28;20236;-77
2024/02/09 09:13:35;;;;;;;10.00;5.43;;;2.40;99.90;;;;;;5014977;28;20196;-77
2024/02/09 09:16:23;;;;;;;8.70;5.27;;;2.40;99.90;;;;;;5015900;28;20196;-77
2024/02/09 09:19:12;;;;;;;9.40;5.63;;;2.40;99.90;;;;;;4999696;28;20195;-76
2024/02/09 09:22:00;;;;;;;10.83;5.43;;;2.50;99.90;;;;;;5014985;28;20226;-78
2024/02/09 09:24:47;;;;;;;14.27;5.67;;;2.50;99.90;;;;;;5015118;28;20306;-77
2024/02/09 09:27:35;;;;;;;10.30;5.60;;;2.40;99.90;;;;;;5016166;28;20235;-80
2024/02/09 09:30:24;;;;;;;10.40;5.70;;;2.40;99.90;;;;;;5000948;28;20207;-80
2024/02/09 09:33:14;;;;;;;10.13;5.70;;;2.50;99.90;;;;;;5001593;28;20291;-80
2024/02/09 09:36:02;;;;;;;7.90;4.63;;;2.60;99.90;;;;;;4999656;28;20315;-76
2024/02/09 09:38:51;;;;;;;8.13;4.90;;;2.60;99.90;;;;;;5014341;28;20672;-77
2024/02/09 09:41:41;;;;;;;8.63;4.90;;;2.50;99.90;;;;;;5015405;28;20309;-76
2024/02/09 09:44:29;;;;;;;6.83;4.70;;;2.50;99.90;;;;;;5000776;28;20231;-84
2024/02/09 09:47:17;;;;;;;17.10;5.90;;;2.40;99.90;;;;;;5015458;28;20262;-83
2024/02/09 09:50:09;;;;;;;10.63;5.30;;;2.40;99.90;;;;;;5014294;28;20653;-72
2024/02/09 09:53:02;;;;;;;9.30;5.10;;;2.30;99.90;;;;;;5014680;28;20200;-79
2024/02/09 09:55:50;;;;;;;8.43;5.07;;;2.50;99.90;;;;;;5014637;28;20546;-74
2024/02/09 09:58:38;;;;;;;8.37;4.90;;;2.40;99.90;;;;;;5015691;28;20196;-78
2024/02/09 10:01:26;;;;;;;9.63;4.80;;;2.30;99.90;;;;;;5015000;28;20200;-73
2024/02/09 10:04:16;;;;;;;9.00;4.80;;;2.40;99.90;;;;;;5013241;28;20227;-74
2024/02/09 10:07:05;;;;;;;8.10;4.57;;;2.30;99.90;;;;;;5014526;28;20313;-74
2024/02/09 10:09:54;;;;;;;8.70;4.77;;;2.30;99.90;;;;;;5015051;28;20293;-74
2024/02/09 10:12:42;;;;;;;8.47;5.00;;;2.20;99.90;;;;;;5014813;28;20223;-73
2024/02/09 10:15:30;;;;;;;9.27;4.70;;;2.30;99.90;;;;;;5000048;28;20200;-86
2024/02/09 10:18:18;;;;;;;9.10;4.33;;;2.30;99.90;;;;;;5013846;28;20569;-78
2024/02/09 10:21:08;;;;;;;8.57;4.60;;;2.40;99.90;;;;;;5014273;28;20210;-75
2024/02/09 10:23:55;;;;;;;6.50;3.90;;;2.40;99.90;;;;;;5013565;28;20229;-78
2024/02/09 10:26:43;;;;;;;7.53;3.93;;;2.30;99.90;;;;;;5014012;28;20717;-77
2024/02/09 10:29:30;;;;;;;9.07;3.67;;;2.30;99.90;;;;;;5014110;28;20678;-76
2024/02/09 10:32:18;;;;;;;4.90;3.20;;;2.20;99.90;;;;;;5013442;28;20195;-78
2024/02/09 10:35:06;;;;;;;5.40;3.50;;;2.30;99.90;;;;;;5012726;28;20192;-77
2024/02/09 10:38:00;;;;;;;5.33;3.50;;;2.20;99.90;;;;;;5015843;28;20699;-77
2024/02/09 10:40:53;;;;;;;7.27;3.80;;;2.10;99.90;;;;;;5000327;28;20193;-77
2024/02/09 10:43:42;;;;;;;7.43;4.43;;;2.20;99.90;;;;;;5012706;28;20441;-78
2024/02/09 10:46:33;;;;;;;6.57;3.93;;;2.20;99.90;;;;;;5013745;28;20290;-78
2024/02/09 10:49:23;;;;;;;7.18;4.00;;;2.10;99.90;;;;;;5014503;28;20421;-75
2024/02/09 10:52:13;;;;;;;7.07;3.40;;;2.10;99.90;;;;;;5013700;28;20196;-75
2024/02/09 10:55:05;;;;;;;6.97;3.40;;;2.00;99.90;;;;;;4999764;28;20591;-76
2024/02/09 10:57:54;;;;;;;6.57;3.53;;;2.00;99.90;;;;;;5013994;28;20683;-76
2024/02/09 11:00:42;;;;;;;7.22;3.80;;;2.10;99.90;;;;;;5013378;28;20432;-77
2024/02/09 11:03:31;;;;;;;6.90;4.13;;;2.10;99.90;;;;;;5013308;28;20220;-77
2024/02/09 11:06:20;;;;;;;5.90;3.50;;;2.00;99.90;;;;;;4999454;28;20744;-77
2024/02/09 11:09:10;;;;;;;7.60;3.80;;;1.90;99.90;;;;;;4999825;28;20308;-78
2024/02/09 11:12:04;;;;;;;7.70;4.30;;;1.90;99.90;;;;;;5014601;28;20579;-82
2024/02/09 11:14:52;;;;;;;6.73;4.03;;;1.80;99.90;;;;;;4998142;28;20196;-80
2024/02/09 11:17:45;;;;;;;7.30;3.63;;;1.80;99.90;;;;;;5012266;28;20587;-79
2024/02/09 11:20:33;;;;;;;7.10;3.80;;;1.70;99.90;;;;;;4998850;28;20268;-78
2024/02/09 11:23:28;;;;;;;7.10;3.80;;;1.70;99.90;;;;;;5012463;28;20193;-78
2024/02/09 11:26:15;;;;;;;7.07;3.50;;;1.60;99.90;;;;;;4997671;28;20188;-78
2024/02/09 11:29:03;;;;;;;7.20;4.10;;;1.60;99.90;;;;;;4998190;28;20582;-77
2024/02/09 11:31:53;;;;;;;6.43;3.60;;;1.50;99.90;;;;;;5013438;28;20192;-79
2024/02/09 11:34:41;;;;;;;7.93;3.80;;;1.40;99.90;;;;;;5010999;28;20197;-79
2024/02/09 11:37:29;;;;;;;6.87;3.77;;;1.40;99.90;;;;;;5014009;28;20207;-80
2024/02/09 11:40:17;;;;;;;13.47;4.47;;;1.40;99.90;;;;;;5013218;28;20198;-79
2024/02/09 11:43:05;;;;;;;5.97;3.83;;;1.20;99.90;;;;;;5012575;28;20227;-80
2024/02/09 11:45:56;;;;;;;8.70;4.30;;;1.30;99.90;;;;;;5012058;28;20192;-78
2024/02/09 11:48:44;;;;;;;7.43;4.17;;;1.20;99.90;;;;;;5011431;28;20290;-79
2024/02/09 11:51:34;;;;;;;8.77;4.30;;;1.20;99.90;;;;;;5011957;28;20207;-77
2024/02/09 11:54:22;;;;;;;8.17;4.73;;;1.20;99.90;;;;;;5013578;28;20247;-77
2024/02/09 11:57:10;;;;;;;13.00;4.80;;;1.20;99.90;;;;;;5011819;28;20218;-78
2024/02/09 12:00:01;;;;;;;8.33;4.80;;;1.20;99.90;;;;;;4998320;28;20235;-78
2024/02/09 12:02:49;;;;;;;10.47;5.07;;;1.20;99.90;;;;;;5013352;28;20688;-77
2024/02/09 12:05:37;;;;;;;10.37;5.60;;;1.20;99.90;;;;;;5012576;28;20219;-77
2024/02/09 12:08:25;;;;;;;9.57;5.23;;;1.20;99.90;;;;;;5012843;28;20738;-78
2024/02/09 12:11:15;;;;;;;8.87;5.13;;;1.10;99.90;;;;;;5011117;28;20204;-78
2024/02/09 12:14:03;;;;;;;9.13;5.03;;;1.10;99.90;;;;;;5012414;28;20234;-78
2024/02/09 12:16:51;;;;;;;7.43;4.57;;;1.10;99.90;;;;;;4997019;28;20283;-79
2024/02/09 12:19:39;;;;;;;7.33;4.17;;;1.00;99.90;;;;;;5012612;28;20206;-78
2024/02/09 12:22:29;;;;;;;9.07;4.20;;;1.00;99.90;;;;;;4998162;28;20574;-78
2024/02/09 12:25:17;;;;;;;6.93;4.27;;;1.00;99.90;;;;;;4998057;28;20219;-78
2024/02/09 12:28:09;;;;;;;7.60;4.33;;;1.00;99.90;;;;;;5010878;28;20257;-78
2024/02/09 12:30:58;;;;;;;10.63;4.77;;;1.00;99.90;;;;;;5012968;28;20223;-78
2024/02/09 12:33:47;;;;;;;9.67;5.10;;;1.00;99.90;;;;;;5011853;28;20614;-80
2024/02/09 12:36:36;;;;;;;8.23;4.80;;;1.00;99.90;;;;;;4998005;28;20297;-78
2024/02/09 12:39:23;;;;;;;10.67;5.80;;;1.00;99.90;;;;;;5012504;28;20325;-77
2024/02/09 12:42:11;;;;;;;9.73;5.30;;;1.00;99.90;;;;;;5012459;28;20698;-77
2024/02/09 12:44:59;;;;;;;11.50;5.57;;;1.00;99.90;;;;;;5012425;28;20219;-80
2024/02/09 12:47:46;;;;;;;8.57;5.10;;;1.00;99.90;;;;;;5011241;28;20216;-79
2024/02/09 12:50:34;;;;;;;8.67;4.93;;;1.00;99.90;;;;;;5012435;28;20281;-79
2024/02/09 12:53:26;;;;;;;8.47;5.03;;;1.10;99.90;;;;;;5011793;28;20610;-79
2024/02/09 12:56:14;;;;;;;8.37;5.20;;;1.10;99.90;;;;;;4998111;28;20379;-80
2024/02/09 12:59:02;;;;;;;9.13;5.87;;;1.10;99.90;;;;;;5011316;28;20717;-79
2024/02/09 13:01:50;;;;;;;11.53;6.80;;;1.10;99.90;;;;;;5013066;28;20191;-79
2024/02/09 13:04:38;;;;;;;14.40;6.87;;;1.10;99.90;;;;;;4997703;28;20926;-78
2024/02/09 13:07:27;;;;;;;15.17;6.63;;;1.10;99.90;;;;;;4998199;28;20231;-78
2024/02/09 13:10:16;;;;;;;16.00;6.90;;;1.10;99.90;;;;;;5010598;28;20336;-78
2024/02/09 13:13:06;;;;;;;12.10;6.37;;;1.10;99.90;;;;;;4997152;28;20222;-79
2024/02/09 13:15:54;;;;;;;10.83;6.37;;;1.10;99.90;;;;;;5010012;28;20619;-79
2024/02/09 13:18:41;;;;;;;11.30;5.90;;;1.10;99.90;;;;;;4997218;28;20281;-79
2024/02/09 13:21:29;;;;;;;11.20;6.57;;;1.00;99.90;;;;;;5012181;28;20687;-79
2024/02/09 13:24:20;;;;;;;16.03;6.50;;;1.00;99.90;;;;;;5012009;28;20222;-78
2024/02/09 13:27:12;;;;;;;15.70;6.40;;;1.00;99.90;;;;;;4997589;28;20222;-78
2024/02/09 13:30:00;;;;;;;12.87;6.47;;;1.00;99.90;;;;;;5011108;28;20429;-78
2024/02/09 13:32:50;;;;;;;9.57;5.70;;;1.00;99.90;;;;;;5011583;28;20221;-76
2024/02/09 13:35:40;;;;;;;11.23;5.83;;;1.10;99.90;;;;;;5011940;28;20198;-78
2024/02/09 13:38:30;;;;;;;9.20;5.73;;;1.10;99.90;;;;;;5011252;28;20612;-76
2024/02/09 13:41:18;;;;;;;9.30;5.80;;;1.10;99.90;;;;;;5013774;28;20206;-76
2024/02/09 13:44:06;;;;;;;8.97;5.07;;;1.20;99.90;;;;;;5015544;28;20226;-78
2024/02/09 13:46:54;;;;;;;12.17;5.30;;;1.10;99.90;;;;;;5015478;28;20211;-78
2024/02/09 13:49:41;;;;;;;9.80;5.70;;;1.10;99.90;;;;;;5000387;28;20575;-77
2024/02/09 13:52:29;;;;;;;11.47;5.37;;;1.10;99.90;;;;;;5014673;28;20203;-77
2024/02/09 13:55:17;;;;;;;10.60;5.50;;;1.00;99.90;;;;;;5001365;28;20671;-77
2024/02/09 13:58:09;;;;;;;8.23;5.07;;;1.00;99.90;;;;;;4999151;28;20234;-78
2024/02/09 14:00:56;;;;;;;8.27;5.03;;;1.00;99.90;;;;;;5000150;28;20562;-77
2024/02/09 14:03:44;;;;;;;6.20;4.23;;;1.10;99.90;;;;;;5013666;28;20605;-78
2024/02/09 14:06:32;;;;;;;8.57;4.80;;;1.10;99.90;;;;;;5013756;28;20593;-77
2024/02/09 14:09:19;;;;;;;7.43;5.03;;;1.20;99.90;;;;;;4999939;28;20188;-78
2024/02/09 14:12:07;;;;;;;7.80;4.93;;;1.10;99.90;;;;;;5000837;28;20573;-78
2024/02/09 14:14:56;;;;;;;9.10;4.90;;;1.10;99.90;;;;;;5013695;28;20193;-77
2024/02/09 14:17:43;;;;;;;8.03;5.37;;;1.00;99.90;;;;;;5013909;28;20710;-77
2024/02/09 14:20:36;;;;;;;8.23;4.80;;;1.00;99.90;;;;;;5013001;28;20200;-77
2024/02/09 14:23:23;;;;;;;7.23;4.73;;;1.00;99.90;;;;;;5014018;28;20200;-78
2024/02/09 14:26:18;;;;;;;7.43;4.80;;;1.00;99.90;;;;;;5014056;28;20230;-79
2024/02/09 14:29:06;;;;;;;9.60;5.20;;;1.00;99.90;;;;;;5013370;28;20200;-76
2024/02/09 14:31:53;;;;;;;8.67;4.73;;;1.00;99.90;;;;;;5014079;28;20202;-77
2024/02/09 14:34:41;;;;;;;7.50;4.67;;;1.00;99.90;;;;;;5012238;28;20698;-77
2024/02/09 14:37:28;;;;;;;8.93;4.40;;;1.00;99.90;;;;;;4997537;28;20201;-77
2024/02/09 14:40:16;;;;;;;10.53;5.10;;;1.00;99.90;;;;;;5013399;28;20329;-77
2024/02/09 14:43:04;;;;;;;7.10;4.80;;;1.00;99.90;;;;;;5014239;28;20265;-77
2024/02/09 14:45:52;;;;;;;8.97;4.93;;;1.00;99.90;;;;;;5012447;28;20676;-77
2024/02/09 14:48:39;;;;;;;7.50;4.80;;;1.00;99.90;;;;;;5014266;28;20198;-77
2024/02/09 14:51:27;;;;;;;8.00;5.20;;;1.00;99.90;;;;;;5012342;28;20199;-77
2024/02/09 14:54:15;;;;;;;8.00;5.00;;;1.10;99.90;;;;;;5014174;28;20215;-77
2024/02/09 14:57:04;;;;;;;9.43;5.13;;;1.00;99.90;;;;;;4999052;28;20382;-77
2024/02/09 14:59:51;;;;;;;7.70;5.07;;;1.10;99.90;;;;;;5000291;28;20202;-77
2024/02/09 15:02:39;;;;;;;7.23;4.70;;;1.10;99.90;;;;;;5012939;28;20282;-77
2024/02/09 15:05:27;;;;;;;7.37;5.07;;;1.00;99.90;;;;;;5014059;28;20583;-77
2024/02/09 15:08:16;;;;;;;8.00;4.73;;;1.00;99.90;;;;;;5013545;28;20729;-77
2024/02/09 15:11:03;;;;;;;7.87;5.13;;;1.10;99.90;;;;;;5013886;28;20208;-77
2024/02/09 15:13:52;;;;;;;8.50;4.83;;;1.10;99.90;;;;;;5011692;28;20277;-77
2024/02/09 15:16:41;;;;;;;8.90;4.70;;;1.10;99.90;;;;;;5012859;28;20208;-77
2024/02/09 15:19:30;;;;;;;8.20;5.20;;;1.00;99.90;;;;;;5013697;28;20197;-77
2024/02/09 15:22:18;;;;;;;10.03;5.47;;;1.00;99.90;;;;;;4999317;28;20200;-78
2024/02/09 15:25:07;;;;;;;10.13;5.67;;;1.10;99.90;;;;;;4999276;28;20226;-77
2024/02/09 15:27:57;;;;;;;9.77;5.80;;;1.10;99.90;;;;;;5011936;28;20212;-78
2024/02/09 15:30:44;;;;;;;10.37;5.67;;;1.10;99.90;;;;;;5011703;28;20677;-78
2024/02/09 15:33:33;;;;;;;8.53;5.33;;;1.10;99.90;;;;;;5012826;28;20192;-78
2024/02/09 15:36:20;;;;;;;12.85;7.82;;;1.10;99.90;;;;;;5011909;28;20896;-75
2024/02/09 15:39:08;;;;;;;11.10;6.53;;;1.10;99.90;;;;;;4998162;28;20204;-77
2024/02/09 15:41:59;;;;;;;10.13;6.33;;;1.10;99.90;;;;;;5013206;28;20299;-77
2024/02/09 15:44:47;;;;;;;12.60;6.63;;;1.10;99.90;;;;;;4997130;28;20221;-76
2024/02/09 15:47:34;;;;;;;10.37;6.47;;;1.10;99.90;;;;;;5012338;28;20699;-76
2024/02/09 15:50:22;;;;;;;10.40;6.23;;;1.00;99.90;;;;;;5012613;28;20710;-75
2024/02/09 15:53:10;;;;;;;11.10;6.70;;;1.00;99.90;;;;;;5011896;28;20202;-76
2024/02/09 15:55:58;;;;;;;11.47;6.30;;;1.00;99.90;;;;;;5012232;28;20203;-78
2024/02/09 15:58:47;;;;;;;10.60;6.17;;;1.00;99.90;;;;;;5012574;28;20224;-74
2024/02/09 16:01:39;;;;;;;11.13;6.73;;;1.20;99.90;;;;;;5012625;28;20208;-78
2024/02/09 16:04:27;;;;;;;12.20;6.87;;;1.00;99.90;;;;;;5012448;28;20388;-76
2024/02/09 16:07:16;;;;;;;11.80;6.30;;;1.00;99.90;;;;;;5011242;28;20267;-76
2024/02/09 16:10:16;;;;;;;10.63;6.67;;;1.00;99.90;;;;;;5013396;28;20200;-77
2024/02/09 16:13:03;;;;;;;11.20;6.70;;;1.00;99.90;;;;;;5012581;28;20575;-78
2024/02/09 16:15:51;;;;;;;12.27;6.67;;;1.00;99.90;;;;;;5011838;28;20195;-76
2024/02/09 16:18:42;;;;;;;12.93;6.83;;;1.10;99.90;;;;;;5012704;28;20199;-77
2024/02/09 16:21:30;;;;;;;10.33;6.43;;;1.10;99.90;;;;;;4998817;28;20205;-78
2024/02/09 16:24:19;;;;;;;11.77;7.23;;;1.00;99.90;;;;;;5011683;28;20200;-77